Main page
METAR-TAF:

METAR-TAF

Airports :

Hohenfels, Germany

latitude: 49-13N, longitude: 011-50E, elevation: 442 m

Current weather observation

The report was made 15 minutes ago, at 02:27 UTC
Wind 3 kt from the North/Northwest
Temperature 12°C
Humidity 100%
Pressure 1003 hPa
Visibility 10 km or more
Broken clouds at a height of 700 ft
Overcast at a height of 1600 ft
light rain

METAR: ETIH 260227Z AUTO 33003KT 9999 -RA BKN007 OVC016 12/12 A2963 RMK AO2 RAB10E26RAB27 SLP032 $

Time: 04:42 (02:42 UTC)


TAF: missing

Weather observations and forecasts of more than 4000 airports (METAR and TAF reports).

The available stations are represented by yellow and red dots on the map.

Hover mouse over dot to see the name of the station.

Then click to see weather observations and forecasts.

To change the map : click on the green buttons with a black cross to zoom in, on the green button with a dash to zoom out, or on the green arrows for adjacent maps.


METAR-TAF: